Turrialba, Costa Rica
Current Conditions -  °F | °C
As of 12:00 PM on Monday 24 Nov 2014 (Local Time) from MROC Reporting Station
Scattered Clouds Scattered Clouds  
Wind Chill: 81°   Ceiling: Unl
Heat Index: 83°   Visibility: 6mi
Dew Point: 68°   Wind: 12mph
Humidity: 65%   Direction: 230°SW
Pressure: 29.98"   Gusts: NA
Location:  9.56°N, 83.4°W
Report Text: MROC 241800Z 23010KT 9999 FEW025TCU SCT040 27/20 A2998 NOSIG
Loading
Personal Weather Stations






























Interactive Weather Map New forecast layout! Learn more

10-Day Weather Forecast

Advertisements
Track Severe Weather on mobile